Time;durP1;ratioP1;P1;durP2;ratioP2;P2;SDS_P1;SDS_P2;PMS_P1;PMS_P2;Temp;Humidity;BMP_temperature;BMP_pressure;BME280_temperature;BME280_humidity;BME280_pressure;Samples;Min_cycle;Max_cycle;Signal;HPM_P1;HPM_P2
2021/06/01 00:02:26;;;;;;;8.27;4.27;;;11.90;83.00;;;;;;4440661;32;20192;-78
2021/06/01 00:04:53;;;;;;;8.50;4.40;;;11.90;83.40;;;;;;4439404;32;20197;-77
2021/06/01 00:07:20;;;;;;;9.70;4.43;;;11.90;83.10;;;;;;4442127;32;20494;-77
2021/06/01 00:09:46;;;;;;;7.10;4.20;;;11.80;83.40;;;;;;4441739;32;20191;-77
2021/06/01 00:12:14;;;;;;;7.83;3.97;;;11.90;83.20;;;;;;4440254;32;20135;-77
2021/06/01 00:14:41;;;;;;;7.17;4.17;;;11.80;83.50;;;;;;4442010;32;20147;-77
2021/06/01 00:17:08;;;;;;;7.33;4.40;;;11.80;83.90;;;;;;4440584;32;20142;-77
2021/06/01 00:19:35;;;;;;;8.47;4.90;;;11.80;83.90;;;;;;4440554;32;20173;-77
2021/06/01 00:22:02;;;;;;;9.37;4.63;;;11.80;83.90;;;;;;4440959;32;20184;-77
2021/06/01 00:24:29;;;;;;;10.77;4.97;;;11.70;84.40;;;;;;4440479;32;20418;-79
2021/06/01 00:27:01;;;;;;;10.97;4.90;;;11.70;84.60;;;;;;4434149;32;20212;-77
2021/06/01 00:29:27;;;;;;;7.83;4.50;;;11.70;85.10;;;;;;4439339;32;20161;-77
2021/06/01 00:31:54;;;;;;;7.87;4.60;;;11.70;85.50;;;;;;4440477;32;20203;-77
2021/06/01 00:34:21;;;;;;;8.87;4.70;;;11.60;85.20;;;;;;4455596;32;20438;-77
2021/06/01 00:36:48;;;;;;;11.33;5.20;;;11.60;85.50;;;;;;4456867;32;20499;-77
2021/06/01 00:39:15;;;;;;;10.70;5.17;;;11.60;85.80;;;;;;4455815;32;20146;-77
2021/06/01 00:41:42;;;;;;;11.27;4.70;;;11.60;85.70;;;;;;4455641;32;20222;-77
2021/06/01 00:44:09;;;;;;;7.90;4.70;;;11.50;85.20;;;;;;4455284;32;20198;-77
2021/06/01 00:46:36;;;;;;;11.23;5.13;;;11.50;85.30;;;;;;4455669;32;20509;-77
2021/06/01 00:49:03;;;;;;;11.00;5.10;;;11.50;86.00;;;;;;4455486;32;20210;-77
2021/06/01 00:51:31;;;;;;;10.83;5.37;;;11.50;86.30;;;;;;4454440;32;20154;-77
2021/06/01 00:54:00;;;;;;;12.03;5.60;;;11.50;86.70;;;;;;4455309;32;20154;-77
2021/06/01 00:56:29;;;;;;;13.30;5.90;;;11.40;86.90;;;;;;4455457;32;20158;-77
2021/06/01 00:58:56;;;;;;;10.80;5.77;;;11.40;87.30;;;;;;4456279;32;20138;-77
2021/06/01 01:01:23;;;;;;;11.07;5.90;;;11.30;87.70;;;;;;4455481;32;20192;-77
2021/06/01 01:03:52;;;;;;;11.87;5.50;;;11.30;87.90;;;;;;4456687;32;20139;-77
2021/06/01 01:06:59;;;;;;;10.60;6.23;;;11.40;88.30;;;;;;4456933;32;20146;-77
2021/06/01 01:09:31;;;;;;;11.77;6.13;;;11.30;88.70;;;;;;4455466;32;20149;-77
2021/06/01 01:12:20;;;;;;;13.57;5.97;;;11.20;89.10;;;;;;4457410;32;20135;-77
2021/06/01 01:14:54;;;;;;;12.63;7.27;;;11.20;89.60;;;;;;4455659;32;20525;-77
2021/06/01 01:17:23;;;;;;;13.57;7.00;;;11.10;89.90;;;;;;4455769;32;20146;-77
2021/06/01 01:20:06;;;;;;;11.63;6.10;;;11.10;90.20;;;;;;4456977;32;20146;-77
2021/06/01 01:22:37;;;;;;;9.90;6.20;;;11.10;90.40;;;;;;4456098;32;20200;-77
2021/06/01 01:25:28;;;;;;;14.93;6.73;;;11.00;90.60;;;;;;4454723;32;20399;-77
2021/06/01 01:28:13;;;;;;;13.13;6.40;;;11.00;90.80;;;;;;4448012;32;20476;-77
2021/06/01 01:30:44;;;;;;;14.10;6.40;;;10.90;91.00;;;;;;4448080;32;20211;-77
2021/06/01 01:33:16;;;;;;;11.43;6.50;;;10.90;91.20;;;;;;4441651;32;20135;-77
2021/06/01 01:35:45;;;;;;;13.00;6.70;;;10.90;91.30;;;;;;4439749;32;20232;-76
2021/06/01 01:38:13;;;;;;;11.83;6.63;;;10.90;91.40;;;;;;4439704;32;20138;-77
2021/06/01 01:40:42;;;;;;;12.47;6.70;;;10.80;91.70;;;;;;4439657;32;20134;-77
2021/06/01 01:43:15;;;;;;;11.00;6.20;;;10.70;91.80;;;;;;4439616;32;20235;-77
2021/06/01 01:45:47;;;;;;;14.60;6.70;;;10.70;92.00;;;;;;4441199;32;20415;-77
2021/06/01 01:51:14;;;;;;;16.07;6.60;;;10.70;92.10;;;;;;4439487;32;20470;-77
2021/06/01 01:53:53;;;;;;;12.30;6.17;;;10.70;92.40;;;;;;4440059;32;20230;-77
2021/06/01 01:56:29;;;;;;;11.97;6.80;;;10.70;92.90;;;;;;4438856;32;20185;-77
2021/06/01 01:58:56;;;;;;;14.47;7.00;;;10.50;93.10;;;;;;4439868;32;20142;-77
2021/06/01 02:01:24;;;;;;;12.47;6.73;;;10.40;93.50;;;;;;4439514;32;20220;-77
2021/06/01 02:03:52;;;;;;;14.13;7.10;;;10.40;94.00;;;;;;4439402;32;20182;-77
2021/06/01 02:06:19;;;;;;;13.50;7.07;;;10.40;94.20;;;;;;4439320;32;20165;-77
2021/06/01 02:08:46;;;;;;;13.23;6.87;;;10.40;94.70;;;;;;4438577;32;20192;-76
2021/06/01 02:11:13;;;;;;;12.40;6.60;;;10.50;94.60;;;;;;4438848;32;20241;-77
2021/06/01 02:13:47;;;;;;;11.83;6.60;;;10.50;95.20;;;;;;4439262;32;20142;-76
2021/06/01 02:16:14;;;;;;;13.60;7.03;;;10.50;95.40;;;;;;4439641;32;20143;-77
2021/06/01 02:18:42;;;;;;;14.97;7.50;;;10.50;95.00;;;;;;4439458;32;20483;-77
2021/06/01 02:22:15;;;;;;;12.17;7.40;;;10.50;95.20;;;;;;4439492;32;20139;-77
2021/06/01 02:24:38;;;;;;;11.30;7.27;;;10.60;95.40;;;;;;4437632;32;20250;-77
2021/06/01 02:27:14;;;;;;;10.37;6.60;;;10.70;95.50;;;;;;4439591;32;20139;-76
2021/06/01 02:30:04;;;;;;;12.57;6.80;;;10.70;95.30;;;;;;4440712;32;20221;-77
2021/06/01 02:32:49;;;;;;;13.33;7.27;;;10.70;95.40;;;;;;4439232;32;20206;-77
2021/06/01 02:35:17;;;;;;;12.47;7.20;;;10.70;95.60;;;;;;4441354;32;20416;-76
2021/06/01 02:37:47;;;;;;;12.77;7.17;;;10.70;95.60;;;;;;4442258;32;20165;-77
2021/06/01 02:40:16;;;;;;;13.70;7.03;;;10.80;95.60;;;;;;4443575;32;20226;-77
2021/06/01 02:42:45;;;;;;;15.87;7.27;;;10.80;95.80;;;;;;4441987;32;20155;-77
2021/06/01 02:45:15;;;;;;;14.23;7.53;;;10.90;95.70;;;;;;4443441;32;20182;-76
2021/06/01 02:47:42;;;;;;;13.37;7.40;;;10.90;95.80;;;;;;4443472;32;20192;-77
2021/06/01 02:50:12;;;;;;;13.13;7.20;;;10.90;95.90;;;;;;4441847;32;20146;-77
2021/06/01 02:52:40;;;;;;;15.07;6.93;;;11.00;95.90;;;;;;4443153;32;20203;-77
2021/06/01 02:55:10;;;;;;;13.30;7.10;;;11.00;96.50;;;;;;4442383;32;20151;-77
2021/06/01 02:57:38;;;;;;;13.77;7.63;;;11.00;96.40;;;;;;4441771;32;20139;-77
2021/06/01 03:00:12;;;;;;;11.97;7.00;;;11.10;96.30;;;;;;4441004;32;20158;-77
2021/06/01 03:02:40;;;;;;;14.13;7.30;;;11.10;97.50;;;;;;4440673;32;20405;-77
2021/06/01 03:05:08;;;;;;;12.37;7.53;;;11.10;97.70;;;;;;4443444;32;20143;-77
2021/06/01 03:07:38;;;;;;;13.73;7.83;;;11.20;98.40;;;;;;4441686;32;20131;-77
2021/06/01 03:10:09;;;;;;;11.57;6.87;;;11.20;98.20;;;;;;4441736;32;20192;-77
2021/06/01 03:12:44;;;;;;;11.63;7.17;;;11.20;98.50;;;;;;4441921;32;20134;-77
2021/06/01 03:15:14;;;;;;;12.43;6.87;;;11.20;99.10;;;;;;4441981;32;20209;-78
2021/06/01 03:17:41;;;;;;;14.27;7.73;;;11.30;98.90;;;;;;4441533;32;20134;-78
2021/06/01 03:20:10;;;;;;;12.67;7.43;;;11.40;99.30;;;;;;4443032;32;20209;-78
2021/06/01 03:22:36;;;;;;;12.90;7.27;;;11.40;99.40;;;;;;4443006;32;20146;-78
2021/06/01 03:25:04;;;;;;;14.07;6.80;;;11.40;99.70;;;;;;4455969;32;20219;-78
2021/06/01 03:27:31;;;;;;;12.97;7.33;;;11.50;99.90;;;;;;4455804;32;20214;-78
2021/06/01 03:29:58;;;;;;;12.97;7.23;;;11.60;99.90;;;;;;4441353;32;20135;-78
2021/06/01 03:32:26;;;;;;;13.43;7.37;;;11.60;99.00;;;;;;4442964;32;20143;-78
2021/06/01 03:34:53;;;;;;;11.37;7.43;;;11.70;98.60;;;;;;4441439;32;20415;-77
2021/06/01 03:37:20;;;;;;;12.63;7.20;;;11.70;98.90;;;;;;4442775;32;20437;-78
2021/06/01 03:39:46;;;;;;;13.77;7.27;;;11.80;98.90;;;;;;4456668;32;20434;-78
2021/06/01 03:42:13;;;;;;;12.97;7.17;;;11.80;99.90;;;;;;4440045;32;20142;-78
2021/06/01 03:44:42;;;;;;;14.37;7.77;;;11.90;99.20;;;;;;4442557;32;20169;-77
2021/06/01 03:47:09;;;;;;;12.67;7.43;;;11.90;99.50;;;;;;4440356;32;20445;-78
2021/06/01 03:49:36;;;;;;;14.43;7.80;;;12.00;99.20;;;;;;4441660;32;20142;-77
2021/06/01 03:52:08;;;;;;;18.83;8.10;;;12.00;99.20;;;;;;4440646;32;20185;-77
2021/06/01 03:54:36;;;;;;;14.27;7.53;;;12.10;97.90;;;;;;4440235;32;20197;-78
2021/06/01 03:57:05;;;;;;;19.50;7.97;;;12.10;97.40;;;;;;4440365;32;20158;-78
2021/06/01 03:59:32;;;;;;;15.50;8.40;;;12.20;97.30;;;;;;4440959;32;20215;-78
2021/06/01 04:01:59;;;;;;;13.50;7.53;;;12.30;97.00;;;;;;4440780;32;20138;-77
2021/06/01 04:04:26;;;;;;;13.13;8.33;;;12.40;96.80;;;;;;4440420;32;20465;-78
2021/06/01 04:06:53;;;;;;;12.83;7.83;;;12.40;96.40;;;;;;4441468;32;20165;-78
2021/06/01 04:09:20;;;;;;;14.23;7.47;;;12.40;96.40;;;;;;4439889;32;20150;-78
2021/06/01 04:11:47;;;;;;;12.30;7.97;;;12.40;96.70;;;;;;4440716;32;20131;-78
2021/06/01 04:14:18;;;;;;;13.50;8.13;;;12.50;96.50;;;;;;4440672;32;20439;-77
2021/06/01 04:16:46;;;;;;;16.07;8.30;;;12.50;96.30;;;;;;4440944;32;20181;-78
2021/06/01 04:19:14;;;;;;;15.30;8.33;;;12.50;96.10;;;;;;4442052;32;20206;-77
2021/06/01 04:21:42;;;;;;;16.93;8.20;;;12.50;95.90;;;;;;4440465;32;20184;-78
2021/06/01 04:24:10;;;;;;;14.53;8.17;;;12.50;96.20;;;;;;4440516;32;20145;-78
2021/06/01 04:26:37;;;;;;;15.93;8.10;;;12.60;96.40;;;;;;4441029;32;20143;-78
2021/06/01 04:29:05;;;;;;;14.87;7.87;;;12.40;96.70;;;;;;4440448;32;20225;-78
2021/06/01 04:31:32;;;;;;;15.70;8.00;;;12.50;96.80;;;;;;4440459;32;20130;-79
2021/06/01 04:33:59;;;;;;;17.43;8.00;;;12.60;96.10;;;;;;4441822;32;20495;-79
2021/06/01 04:36:26;;;;;;;13.67;7.33;;;12.60;95.70;;;;;;4440386;32;20158;-79
2021/06/01 04:38:53;;;;;;;13.87;8.30;;;12.70;95.70;;;;;;4439611;32;20398;-79
2021/06/01 04:41:20;;;;;;;13.97;8.43;;;12.50;95.90;;;;;;4441755;32;20157;-78
2021/06/01 04:43:47;;;;;;;16.03;8.30;;;12.70;95.30;;;;;;4441510;32;20415;-79
2021/06/01 04:46:14;;;;;;;15.87;8.13;;;12.70;95.30;;;;;;4441100;32;20146;-80
2021/06/01 04:48:41;;;;;;;12.27;7.53;;;12.80;95.20;;;;;;4439560;32;20150;-79
2021/06/01 04:51:16;;;;;;;13.13;8.00;;;12.90;94.80;;;;;;4440296;32;20180;-78
2021/06/01 04:53:52;;;;;;;15.20;8.07;;;12.90;94.70;;;;;;4440893;32;20487;-78
2021/06/01 04:56:20;;;;;;;14.50;7.70;;;13.00;94.70;;;;;;4440037;32;20154;-79
2021/06/01 04:58:52;;;;;;;14.73;8.23;;;13.00;94.50;;;;;;4441111;32;20360;-79
2021/06/01 05:01:18;;;;;;;15.13;7.80;;;13.10;94.50;;;;;;4440126;32;20499;-80
2021/06/01 05:03:45;;;;;;;15.40;8.37;;;13.10;94.70;;;;;;4441548;32;20163;-79
2021/06/01 05:06:12;;;;;;;14.17;7.90;;;13.20;94.80;;;;;;4439617;32;20213;-79
2021/06/01 05:08:39;;;;;;;16.30;8.10;;;13.30;94.80;;;;;;4443374;32;20150;-80
2021/06/01 05:11:06;;;;;;;14.17;7.33;;;13.30;94.40;;;;;;4441008;32;20191;-79
2021/06/01 05:13:33;;;;;;;13.80;7.77;;;13.40;94.90;;;;;;4452158;32;20154;-79
2021/06/01 05:16:00;;;;;;;15.03;8.03;;;13.40;94.60;;;;;;4455616;32;20195;-78
2021/06/01 05:18:27;;;;;;;12.30;6.90;;;13.40;94.70;;;;;;4447535;32;20200;-78
2021/06/01 05:21:05;;;;;;;13.53;7.40;;;13.30;95.10;;;;;;4440302;32;20143;-78
2021/06/01 05:23:32;;;;;;;17.70;7.90;;;13.50;94.80;;;;;;4439811;32;20465;-77
2021/06/01 05:25:59;;;;;;;13.40;7.60;;;13.40;94.70;;;;;;4441349;32;20134;-79
2021/06/01 05:28:26;;;;;;;12.03;7.53;;;13.40;94.80;;;;;;4439861;32;20210;-79
2021/06/01 05:31:14;;;;;;;18.00;7.83;;;13.40;95.00;;;;;;4439798;32;20142;-79
2021/06/01 05:33:47;;;;;;;16.93;7.60;;;13.40;95.10;;;;;;4439793;32;20139;-78
2021/06/01 05:36:14;;;;;;;11.10;7.10;;;13.60;95.00;;;;;;4439320;32;20165;-80
2021/06/01 05:38:40;;;;;;;13.20;7.90;;;13.70;94.90;;;;;;4439752;32;20543;-79
2021/06/01 05:41:07;;;;;;;16.03;8.30;;;13.80;95.10;;;;;;4438994;32;20366;-80
2021/06/01 05:43:35;;;;;;;14.90;8.33;;;13.60;95.70;;;;;;4440670;32;20453;-78
2021/06/01 05:46:02;;;;;;;14.10;7.50;;;13.40;96.40;;;;;;4439708;32;20523;-79
2021/06/01 05:48:29;;;;;;;15.60;7.73;;;13.40;95.80;;;;;;4439781;32;20138;-79
2021/06/01 05:50:57;;;;;;;15.50;7.37;;;13.50;96.00;;;;;;4439128;32;20145;-79
2021/06/01 05:53:25;;;;;;;12.33;7.30;;;13.80;95.50;;;;;;4439459;32;20166;-79
2021/06/01 05:55:53;;;;;;;14.70;7.23;;;14.00;95.00;;;;;;4439568;32;20234;-79
2021/06/01 05:58:20;;;;;;;15.57;7.67;;;14.20;94.70;;;;;;4440543;32;20149;-79
2021/06/01 06:00:47;;;;;;;12.93;7.40;;;14.30;94.70;;;;;;4440857;32;20143;-79
2021/06/01 06:03:15;;;;;;;15.17;7.97;;;14.40;94.80;;;;;;4440925;32;20142;-79
2021/06/01 06:05:46;;;;;;;15.80;7.33;;;14.60;94.70;;;;;;4439420;32;20142;-79
2021/06/01 06:08:14;;;;;;;15.27;7.30;;;14.70;94.50;;;;;;4441164;32;20448;-78
2021/06/01 06:10:43;;;;;;;19.90;7.23;;;14.80;94.50;;;;;;4442153;32;20507;-77
2021/06/01 06:13:10;;;;;;;13.57;7.33;;;15.00;94.50;;;;;;4442591;32;20142;-78
2021/06/01 06:15:38;;;;;;;19.73;7.80;;;15.20;94.50;;;;;;4442368;32;20173;-78
2021/06/01 06:18:28;;;;;;;14.10;7.73;;;15.20;93.60;;;;;;4442197;32;20176;-78
2021/06/01 06:20:59;;;;;;;16.37;8.13;;;15.20;93.50;;;;;;4443567;32;20134;-79
2021/06/01 06:23:29;;;;;;;11.17;6.90;;;15.30;93.10;;;;;;4443872;32;20192;-78
2021/06/01 06:25:56;;;;;;;15.07;7.20;;;15.20;93.50;;;;;;4442258;32;20212;-79
2021/06/01 06:28:23;;;;;;;16.30;7.27;;;15.30;93.20;;;;;;4442221;32;20146;-79
2021/06/01 06:30:50;;;;;;;13.67;7.03;;;15.30;91.80;;;;;;4442756;32;20188;-78
2021/06/01 06:33:17;;;;;;;15.07;7.20;;;15.40;92.60;;;;;;4442159;32;20188;-78
2021/06/01 06:35:46;;;;;;;12.37;6.97;;;15.50;92.20;;;;;;4442140;32;20150;-77
2021/06/01 06:38:13;;;;;;;12.13;6.77;;;15.60;91.80;;;;;;4441979;32;20134;-78
2021/06/01 06:40:40;;;;;;;13.73;6.97;;;15.70;91.80;;;;;;4441894;32;20203;-78
2021/06/01 06:43:07;;;;;;;12.17;6.20;;;15.90;91.60;;;;;;4441939;32;20150;-78
2021/06/01 06:45:36;;;;;;;13.43;6.20;;;16.00;90.20;;;;;;4442770;32;20139;-78
2021/06/01 06:48:08;;;;;;;15.77;7.20;;;16.10;90.40;;;;;;4443324;32;20161;-78
2021/06/01 06:50:36;;;;;;;13.23;6.50;;;16.10;90.10;;;;;;4441747;32;20153;-77
2021/06/01 06:53:04;;;;;;;11.40;6.93;;;15.90;89.50;;;;;;4440917;32;20146;-78
2021/06/01 06:55:33;;;;;;;12.73;6.50;;;15.90;90.60;;;;;;4441975;32;20134;-79
2021/06/01 06:58:00;;;;;;;12.23;6.17;;;16.10;91.20;;;;;;4443296;32;20245;-79
2021/06/01 07:00:29;;;;;;;15.07;6.00;;;16.30;89.60;;;;;;4441407;32;20183;-74
2021/06/01 07:02:56;;;;;;;13.70;5.70;;;16.20;89.60;;;;;;4440845;32;20576;-74
2021/06/01 07:05:23;;;;;;;11.53;5.47;;;16.50;89.00;;;;;;4441757;32;20265;-73
2021/06/01 07:07:53;;;;;;;12.33;5.73;;;16.70;88.40;;;;;;4441467;32;20416;-74
2021/06/01 07:10:21;;;;;;;14.63;5.83;;;16.90;89.10;;;;;;4443132;32;20146;-73
2021/06/01 07:12:49;;;;;;;12.83;5.37;;;17.10;87.60;;;;;;4441194;32;20431;-73
2021/06/01 07:15:23;;;;;;;15.80;5.50;;;17.30;86.10;;;;;;4441521;32;20146;-74
2021/06/01 07:17:59;;;;;;;17.30;5.63;;;17.20;87.10;;;;;;4441174;32;20146;-73
2021/06/01 07:20:31;;;;;;;15.77;5.13;;;17.30;86.20;;;;;;4441396;32;20434;-73
2021/06/01 07:22:59;;;;;;;16.70;5.07;;;17.50;86.00;;;;;;4441158;32;20158;-73
2021/06/01 07:25:26;;;;;;;14.90;5.37;;;17.40;86.00;;;;;;4441374;32;20229;-74
2021/06/01 07:27:53;;;;;;;12.00;5.40;;;17.70;84.20;;;;;;4442465;32;20503;-75
2021/06/01 07:30:21;;;;;;;16.17;4.90;;;17.70;83.80;;;;;;4441422;32;20540;-74
2021/06/01 07:32:48;;;;;;;19.17;5.80;;;18.00;85.10;;;;;;4442667;32;20127;-74
2021/06/01 07:35:16;;;;;;;14.37;5.27;;;18.10;81.50;;;;;;4442817;32;20142;-74
2021/06/01 07:37:44;;;;;;;10.60;5.77;;;17.80;83.00;;;;;;4441067;32;20195;-73
2021/06/01 07:40:11;;;;;;;13.13;4.90;;;17.60;83.70;;;;;;4441130;32;20169;-74
2021/06/01 07:42:38;;;;;;;12.67;4.87;;;17.90;84.20;;;;;;4444382;32;20215;-74
2021/06/01 07:45:06;;;;;;;15.10;5.30;;;18.40;83.30;;;;;;4448834;32;20598;-74
2021/06/01 07:47:33;;;;;;;11.17;5.37;;;18.50;79.90;;;;;;4441121;32;20156;-74
2021/06/01 07:50:00;;;;;;;12.43;4.93;;;18.70;80.90;;;;;;4441062;32;20536;-72
2021/06/01 07:52:27;;;;;;;10.33;5.20;;;18.50;81.80;;;;;;4440980;32;20139;-73
2021/06/01 07:54:56;;;;;;;11.17;4.67;;;18.80;80.20;;;;;;4440528;32;20162;-70
2021/06/01 07:57:23;;;;;;;10.30;4.17;;;19.00;78.60;;;;;;4442146;32;20150;-71
2021/06/01 07:59:50;;;;;;;10.63;4.90;;;19.30;77.10;;;;;;4441279;32;20201;-71
2021/06/01 08:02:18;;;;;;;9.77;4.83;;;19.50;74.80;;;;;;4441281;32;20404;-71
2021/06/01 08:04:44;;;;;;;12.83;4.20;;;19.80;75.70;;;;;;4442208;32;20191;-72
2021/06/01 08:07:13;;;;;;;11.37;4.17;;;19.20;73.70;;;;;;4440675;32;20146;-71
2021/06/01 08:09:40;;;;;;;12.40;4.37;;;19.00;73.30;;;;;;4440719;32;20422;-72
2021/06/01 08:12:08;;;;;;;11.23;4.70;;;19.00;73.60;;;;;;4440851;32;20154;-72
2021/06/01 08:14:35;;;;;;;10.30;4.20;;;19.20;75.50;;;;;;4440656;32;20520;-70
2021/06/01 08:17:03;;;;;;;10.50;4.20;;;19.20;75.30;;;;;;4440754;32;20447;-72
2021/06/01 08:19:34;;;;;;;6.40;2.83;;;19.50;73.40;;;;;;4441550;32;20544;-74
2021/06/01 08:22:08;;;;;;;7.70;3.20;;;19.70;64.40;;;;;;4440360;32;20130;-74
2021/06/01 08:24:39;;;;;;;7.40;3.43;;;20.20;64.50;;;;;;4440604;32;20188;-73
2021/06/01 08:27:06;;;;;;;7.03;3.57;;;20.60;63.80;;;;;;4440657;32;20217;-72
2021/06/01 08:29:33;;;;;;;6.23;3.43;;;20.90;63.90;;;;;;4440620;32;20150;-73
2021/06/01 08:32:00;;;;;;;7.40;4.03;;;20.90;63.90;;;;;;4439665;32;20131;-72
2021/06/01 08:34:28;;;;;;;7.37;3.43;;;21.20;64.50;;;;;;4441605;32;20195;-71
2021/06/01 08:36:55;;;;;;;7.93;3.78;;;21.90;63.10;;;;;;4439617;32;20169;-72
2021/06/01 08:39:26;;;;;;;8.32;3.60;;;21.90;57.90;;;;;;4440770;32;20205;-70
2021/06/01 08:41:55;;;;;;;8.23;3.53;;;21.30;59.80;;;;;;4439889;32;20162;-70
2021/06/01 08:44:23;;;;;;;10.90;3.60;;;22.00;60.80;;;;;;4440257;32;20131;-73
2021/06/01 08:46:51;;;;;;;5.87;2.97;;;22.80;59.40;;;;;;4441549;32;20168;-73
2021/06/01 08:49:19;;;;;;;6.75;3.40;;;23.50;57.50;;;;;;4439979;32;20135;-73
2021/06/01 08:51:47;;;;;;;6.25;3.10;;;23.90;56.30;;;;;;4440087;32;20177;-71
2021/06/01 08:54:17;;;;;;;6.55;2.72;;;23.90;51.30;;;;;;4439897;32;20162;-73
2021/06/01 08:56:44;;;;;;;4.57;2.70;;;24.20;51.20;;;;;;4439866;32;20187;-74
2021/06/01 08:59:13;;;;;;;5.12;2.47;;;24.50;49.80;;;;;;4439996;32;20138;-75
2021/06/01 09:01:41;;;;;;;6.20;2.33;;;24.70;47.90;;;;;;4441177;32;20180;-73
2021/06/01 09:04:11;;;;;;;8.77;2.97;;;24.70;47.30;;;;;;4440008;32;20353;-71
2021/06/01 09:06:45;;;;;;;6.47;2.90;;;24.40;47.50;;;;;;4439241;32;20137;-72
2021/06/01 09:21:12;;;;;;;3.92;2.30;;;24.10;47.80;;;;;;4406627;32;20178;-70
2021/06/01 09:23:47;;;;;;;5.10;2.53;;;23.70;46.60;;;;;;4408632;32;20205;-69
2021/06/01 09:26:56;;;;;;;6.18;2.53;;;23.40;45.10;;;;;;4406315;32;20159;-71
2021/06/01 09:29:25;;;;;;;4.20;2.20;;;22.30;44.70;;;;;;4406512;32;20150;-71
2021/06/01 09:32:08;;;;;;;4.22;2.17;;;22.40;47.70;;;;;;4406226;32;20161;-71
2021/06/01 09:34:44;;;;;;;4.07;2.08;;;22.80;48.10;;;;;;4406567;32;20186;-71
2021/06/01 09:37:32;;;;;;;4.97;1.90;;;23.20;47.20;;;;;;4406127;32;20258;-71
2021/06/01 09:40:20;;;;;;;3.65;1.60;;;23.20;47.00;;;;;;4408092;32;20150;-72
2021/06/01 09:42:50;;;;;;;3.70;1.70;;;23.40;44.20;;;;;;4406930;32;20249;-71
2021/06/01 09:45:23;;;;;;;2.67;2.00;;;23.50;44.80;;;;;;4410685;32;20166;-72
2021/06/01 09:47:49;;;;;;;4.20;2.15;;;23.00;44.90;;;;;;4411161;32;20151;-72
2021/06/01 09:50:35;;;;;;;3.13;2.10;;;22.60;45.80;;;;;;4440814;32;20145;-70
2021/06/01 09:53:06;;;;;;;5.05;1.95;;;22.30;46.60;;;;;;4442034;32;20561;-71
2021/06/01 09:55:41;;;;;;;3.28;2.00;;;22.20;47.50;;;;;;4441859;32;20212;-71
2021/06/01 09:58:10;;;;;;;6.43;2.20;;;22.20;48.70;;;;;;4443963;32;20153;-70
2021/06/01 10:00:40;;;;;;;4.13;2.30;;;21.90;48.20;;;;;;4442607;32;20177;-71
2021/06/01 10:03:20;;;;;;;3.50;2.37;;;21.40;48.70;;;;;;4442613;32;20196;-70
2021/06/01 10:05:49;;;;;;;6.43;2.53;;;21.20;50.50;;;;;;4444268;32;20238;-70
2021/06/01 10:08:17;;;;;;;3.87;2.63;;;21.30;51.30;;;;;;4442399;32;20295;-70
2021/06/01 10:10:54;;;;;;;4.77;2.57;;;21.10;52.20;;;;;;4442276;32;20147;-70
2021/06/01 10:13:23;;;;;;;4.77;2.30;;;20.90;52.30;;;;;;4446162;32;20211;-69
2021/06/01 10:15:52;;;;;;;4.43;2.50;;;20.70;52.30;;;;;;4445105;32;20459;-70
2021/06/01 10:18:19;;;;;;;5.33;2.20;;;20.70;53.40;;;;;;4445178;32;20234;-70
2021/06/01 10:20:48;;;;;;;5.83;2.20;;;20.70;52.90;;;;;;4459484;32;20170;-70
2021/06/01 10:23:29;;;;;;;9.50;3.57;;;20.70;52.50;;;;;;4457195;32;20150;-70
2021/06/01 10:25:58;;;;;;;9.33;3.27;;;21.00;53.30;;;;;;4445595;32;20238;-77
2021/06/01 10:28:33;;;;;;;5.83;2.77;;;21.10;52.20;;;;;;4442205;32;20545;-76
2021/06/01 10:31:04;;;;;;;7.77;3.30;;;21.30;52.60;;;;;;4443341;32;20138;-76
2021/06/01 10:33:43;;;;;;;8.17;2.70;;;21.30;51.00;;;;;;4441603;32;20162;-76
2021/06/01 10:42:29;;;;;;;6.07;2.57;;;21.20;51.00;;;;;;4443592;32;20184;-78
2021/06/01 10:50:36;;;;;;;13.33;4.17;;;21.40;54.70;;;;;;4429499;32;20211;-78
2021/06/01 10:53:18;;;;;;;7.07;3.10;;;21.70;55.20;;;;;;4442030;32;20398;-80
2021/06/01 10:55:55;;;;;;;5.87;2.90;;;21.70;54.90;;;;;;4446793;32;20196;-78
2021/06/01 10:58:48;;;;;;;13.67;4.37;;;21.80;54.60;;;;;;4446932;32;20197;-77
2021/06/01 11:04:37;;;;;;;6.13;2.53;;;21.90;54.90;;;;;;4441994;32;20189;-78
2021/06/01 11:09:37;;;;;;;16.97;4.50;;;21.70;54.00;;;;;;4379322;32;20198;-79
2021/06/01 11:12:18;;;;;;;9.50;3.40;;;21.50;52.10;;;;;;4380210;32;20283;-77
2021/06/01 11:14:47;;;;;;;30.43;7.10;;;21.70;52.60;;;;;;4377411;32;20181;-79
2021/06/01 11:17:15;;;;;;;7.15;2.60;;;21.90;52.80;;;;;;4378491;32;20152;-79
2021/06/01 11:20:08;;;;;;;10.17;3.13;;;22.10;51.60;;;;;;4379932;32;20463;-79
2021/06/01 11:22:44;;;;;;;5.70;2.53;;;21.80;50.60;;;;;;4304988;33;20204;-79
2021/06/01 11:33:42;;;;;;;6.60;2.80;;;21.80;50.90;;;;;;4306432;33;20169;-79
2021/06/01 11:36:12;;;;;;;7.03;2.77;;;21.50;50.10;;;;;;4304982;33;20480;-78
2021/06/01 11:38:54;;;;;;;7.50;3.10;;;21.40;50.80;;;;;;4305854;33;20172;-79
2021/06/01 11:44:19;;;;;;;6.60;2.30;;;21.50;51.70;;;;;;4379950;32;20256;-79
2021/06/01 11:46:58;;;;;;;8.83;3.37;;;21.40;52.50;;;;;;4379111;32;20211;-78
2021/06/01 11:52:11;;;;;;;8.03;2.60;;;21.60;50.50;;;;;;4378430;32;20480;-79
2021/06/01 11:54:50;;;;;;;10.40;3.10;;;21.80;51.90;;;;;;4378513;32;20151;-79
2021/06/01 11:57:30;;;;;;;17.53;5.70;;;21.60;50.90;;;;;;4377972;32;20337;-79
2021/06/01 12:02:51;;;;;;;7.33;2.90;;;21.80;50.90;;;;;;4441991;32;20166;-80
2021/06/01 12:11:12;;;;;;;4.00;2.00;;;21.80;49.70;;;;;;4454578;32;20176;-80
2021/06/01 12:11:25;;;;;;;3.53;2.10;;;21.60;49.60;;;;;;4447606;32;20184;-79
2021/06/01 12:14:12;;;;;;;3.43;2.20;;;21.60;50.90;;;;;;4441432;32;20143;-79
2021/06/01 12:20:01;;;;;;;10.43;3.17;;;22.10;51.50;;;;;;4406704;32;20163;-79
2021/06/01 12:22:48;;;;;;;3.17;2.20;;;22.20;51.70;;;;;;4407510;32;20159;-79
2021/06/01 12:25:18;;;;;;;4.83;2.40;;;21.60;49.80;;;;;;4395534;32;20172;-78
2021/06/01 12:28:10;;;;;;;5.47;2.20;;;21.20;51.50;;;;;;4408403;32;20147;-80
2021/06/01 12:33:24;;;;;;;4.50;2.20;;;21.30;51.00;;;;;;4409623;32;20158;-80
2021/06/01 12:44:43;;;;;;;5.57;2.17;;;20.90;52.90;;;;;;4348131;33;20160;-77
2021/06/01 13:12:05;;;;;;;3.17;2.10;;;20.10;52.70;;;;;;4275388;33;20154;-78
2021/06/01 13:21:42;;;;;;;6.03;2.27;;;21.80;50.30;;;;;;4305082;33;20184;-78
2021/06/01 13:30:11;;;;;;;6.73;2.60;;;21.80;49.70;;;;;;4301419;33;20173;-79
2021/06/01 13:38:52;;;;;;;3.72;2.40;;;24.60;44.30;;;;;;4332472;33;20455;-80
2021/06/01 13:46:52;;;;;;;4.00;2.45;;;25.30;43.30;;;;;;4391553;32;20148;-79
2021/06/01 13:49:33;;;;;;;4.70;2.40;;;25.40;42.00;;;;;;4397964;32;20151;-79
2021/06/01 14:22:03;;;;;;;11.10;4.40;;;25.40;41.80;;;;;;4439545;32;20146;-80
2021/06/01 14:30:15;;;;;;;11.70;4.32;;;24.40;42.70;;;;;;4441305;32;20158;-79
2021/06/01 14:38:12;;;;;;;4.12;2.53;;;24.10;43.40;;;;;;4455772;32;20169;-78
2021/06/01 15:11:16;;;;;;;5.17;2.80;;;22.40;47.10;;;;;;4443081;32;20170;-80
2021/06/01 16:41:54;;;;;;;2.83;1.63;;;20.00;51.60;;;;;;4378985;32;20156;-78
2021/06/01 17:06:19;;;;;;;4.30;1.60;;;19.80;53.50;;;;;;4447904;32;20459;-80
2021/06/01 17:11:20;;;;;;;3.60;1.80;;;19.70;53.60;;;;;;4440970;32;20147;-78
2021/06/01 17:13:54;;;;;;;2.60;1.63;;;19.70;53.70;;;;;;4441316;32;20214;-78
2021/06/01 17:35:42;;;;;;;5.40;2.10;;;19.40;55.10;;;;;;4415920;32;20211;-79
2021/06/01 17:38:09;;;;;;;4.40;2.13;;;19.30;55.20;;;;;;4407009;32;20151;-79
2021/06/01 17:40:38;;;;;;;4.13;2.10;;;19.30;55.10;;;;;;4406767;32;20155;-80
2021/06/01 17:43:08;;;;;;;3.60;2.17;;;19.30;56.10;;;;;;4406765;32;20242;-80
2021/06/01 17:45:46;;;;;;;2.67;2.03;;;19.30;55.80;;;;;;4407020;32;20432;-79
2021/06/01 17:48:31;;;;;;;4.17;2.13;;;19.20;56.10;;;;;;4407855;32;20169;-78
2021/06/01 17:50:59;;;;;;;8.07;2.70;;;19.10;57.30;;;;;;4406886;32;20147;-80
2021/06/01 17:53:28;;;;;;;4.40;1.90;;;19.10;56.60;;;;;;4408047;32;20196;-79
2021/06/01 17:55:56;;;;;;;6.50;2.33;;;19.00;55.30;;;;;;4395722;32;20189;-79
2021/06/01 17:58:24;;;;;;;4.33;2.40;;;18.90;56.00;;;;;;4406700;32;20178;-79
2021/06/01 18:00:51;;;;;;;5.70;2.10;;;18.90;56.50;;;;;;4407707;32;20190;-80
2021/06/01 18:03:21;;;;;;;4.60;2.00;;;18.80;56.00;;;;;;4417444;32;20212;-80
2021/06/01 18:05:51;;;;;;;3.63;2.10;;;18.80;56.60;;;;;;4440753;32;20184;-80
2021/06/01 18:08:32;;;;;;;4.53;2.33;;;18.80;56.60;;;;;;4443144;32;20142;-79
2021/06/01 18:11:35;;;;;;;4.67;2.30;;;18.80;57.00;;;;;;4443315;32;20187;-79
2021/06/01 19:01:46;;;;;;;4.17;2.60;;;17.80;61.10;;;;;;4442185;32;20150;-82
2021/06/01 19:25:49;;;;;;;4.13;2.40;;;17.20;63.60;;;;;;4382322;32;20237;-80
2021/06/01 19:50:21;;;;;;;7.33;4.00;;;16.30;68.40;;;;;;4394476;32;20174;-79
2021/06/01 19:52:51;;;;;;;9.73;3.77;;;16.20;68.80;;;;;;4392806;32;20247;-79